sensor_id;sensor_type;location;lat;lon;timestamp;temperature;humidity
5806;DHT22;2929;50.810;8.342;2022-12-29T00:02:00;8.30;99.90
5806;DHT22;2929;50.810;8.342;2022-12-29T00:04:28;8.40;99.90
5806;DHT22;2929;50.810;8.342;2022-12-29T00:06:56;8.40;99.90
5806;DHT22;2929;50.810;8.342;2022-12-29T00:09:23;8.50;99.90
5806;DHT22;2929;50.810;8.342;2022-12-29T00:11:50;8.50;99.90
5806;DHT22;2929;50.810;8.342;2022-12-29T00:14:17;8.50;99.90
5806;DHT22;2929;50.810;8.342;2022-12-29T00:17:02;8.50;99.90
5806;DHT22;2929;50.810;8.342;2022-12-29T00:19:31;8.50;99.90
5806;DHT22;2929;50.810;8.342;2022-12-29T00:22:15;8.50;99.90
5806;DHT22;2929;50.810;8.342;2022-12-29T00:25:00;8.50;99.90
5806;DHT22;2929;50.810;8.342;2022-12-29T00:27:45;8.50;99.90
5806;DHT22;2929;50.810;8.342;2022-12-29T00:30:30;8.60;99.90
5806;DHT22;2929;50.810;8.342;2022-12-29T00:33:17;8.50;99.90
5806;DHT22;2929;50.810;8.342;2022-12-29T00:36:06;8.60;99.90
5806;DHT22;2929;50.810;8.342;2022-12-29T00:38:37;8.60;99.90
5806;DHT22;2929;50.810;8.342;2022-12-29T00:41:25;8.60;99.90
5806;DHT22;2929;50.810;8.342;2022-12-29T00:44:12;8.60;99.90
5806;DHT22;2929;50.810;8.342;2022-12-29T00:46:41;8.70;99.90
5806;DHT22;2929;50.810;8.342;2022-12-29T00:49:10;8.70;99.90
5806;DHT22;2929;50.810;8.342;2022-12-29T00:51:58;8.70;99.90
5806;DHT22;2929;50.810;8.342;2022-12-29T00:54:26;8.70;99.90
5806;DHT22;2929;50.810;8.342;2022-12-29T00:56:54;8.70;99.90
5806;DHT22;2929;50.810;8.342;2022-12-29T00:59:21;8.70;99.90
5806;DHT22;2929;50.810;8.342;2022-12-29T01:01:50;8.70;99.90
5806;DHT22;2929;50.810;8.342;2022-12-29T01:04:19;8.80;99.90
5806;DHT22;2929;50.810;8.342;2022-12-29T01:06:48;8.70;99.90
5806;DHT22;2929;50.810;8.342;2022-12-29T01:09:17;8.60;99.90
5806;DHT22;2929;50.810;8.342;2022-12-29T01:12:02;8.60;99.90
5806;DHT22;2929;50.810;8.342;2022-12-29T01:14:30;8.70;99.90
5806;DHT22;2929;50.810;8.342;2022-12-29T01:16:57;8.70;99.90
5806;DHT22;2929;50.810;8.342;2022-12-29T01:19:25;8.70;99.90
5806;DHT22;2929;50.810;8.342;2022-12-29T01:21:52;8.70;99.90
5806;DHT22;2929;50.810;8.342;2022-12-29T01:24:20;8.70;99.90
5806;DHT22;2929;50.810;8.342;2022-12-29T01:26:48;8.70;99.90
5806;DHT22;2929;50.810;8.342;2022-12-29T01:29:16;8.70;99.90
5806;DHT22;2929;50.810;8.342;2022-12-29T01:31:45;8.70;99.90
5806;DHT22;2929;50.810;8.342;2022-12-29T01:34:12;8.70;99.90
5806;DHT22;2929;50.810;8.342;2022-12-29T01:36:39;8.70;99.90
5806;DHT22;2929;50.810;8.342;2022-12-29T01:39:06;8.70;99.90
5806;DHT22;2929;50.810;8.342;2022-12-29T01:41:35;8.70;99.90
5806;DHT22;2929;50.810;8.342;2022-12-29T01:44:02;8.80;99.90
5806;DHT22;2929;50.810;8.342;2022-12-29T01:46:32;8.80;99.90
5806;DHT22;2929;50.810;8.342;2022-12-29T01:49:07;8.70;99.90
5806;DHT22;2929;50.810;8.342;2022-12-29T01:51:39;8.70;99.90
5806;DHT22;2929;50.810;8.342;2022-12-29T01:54:09;8.70;99.90
5806;DHT22;2929;50.810;8.342;2022-12-29T01:56:39;8.80;99.90
5806;DHT22;2929;50.810;8.342;2022-12-29T01:59:08;8.70;99.90
5806;DHT22;2929;50.810;8.342;2022-12-29T02:01:38;8.70;99.90
5806;DHT22;2929;50.810;8.342;2022-12-29T02:04:05;8.60;99.90
5806;DHT22;2929;50.810;8.342;2022-12-29T02:06:36;8.60;99.90
5806;DHT22;2929;50.810;8.342;2022-12-29T02:09:05;8.70;99.90
5806;DHT22;2929;50.810;8.342;2022-12-29T02:11:32;8.70;99.90
5806;DHT22;2929;50.810;8.342;2022-12-29T02:14:00;8.70;99.90
5806;DHT22;2929;50.810;8.342;2022-12-29T02:16:40;8.70;99.90
5806;DHT22;2929;50.810;8.342;2022-12-29T02:19:46;8.70;99.90
5806;DHT22;2929;50.810;8.342;2022-12-29T02:22:24;8.70;99.90
5806;DHT22;2929;50.810;8.342;2022-12-29T02:25:27;8.80;99.90
5806;DHT22;2929;50.810;8.342;2022-12-29T02:31:00;8.80;99.90
5806;DHT22;2929;50.810;8.342;2022-12-29T02:33:41;8.80;99.90
5806;DHT22;2929;50.810;8.342;2022-12-29T02:36:22;8.70;99.90
5806;DHT22;2929;50.810;8.342;2022-12-29T02:38:59;8.80;99.90
5806;DHT22;2929;50.810;8.342;2022-12-29T02:41:32;8.80;99.90
5806;DHT22;2929;50.810;8.342;2022-12-29T02:44:04;8.70;99.90
5806;DHT22;2929;50.810;8.342;2022-12-29T02:46:37;8.70;99.90
5806;DHT22;2929;50.810;8.342;2022-12-29T02:49:10;8.70;99.90
5806;DHT22;2929;50.810;8.342;2022-12-29T02:51:46;8.70;99.90
5806;DHT22;2929;50.810;8.342;2022-12-29T02:54:18;8.70;99.90
5806;DHT22;2929;50.810;8.342;2022-12-29T02:57:07;8.60;99.90
5806;DHT22;2929;50.810;8.342;2022-12-29T02:59:35;8.70;99.90
5806;DHT22;2929;50.810;8.342;2022-12-29T03:02:18;8.60;99.90
5806;DHT22;2929;50.810;8.342;2022-12-29T03:05:03;8.50;99.90
5806;DHT22;2929;50.810;8.342;2022-12-29T03:07:40;8.50;99.90
5806;DHT22;2929;50.810;8.342;2022-12-29T03:10:17;8.40;99.90
5806;DHT22;2929;50.810;8.342;2022-12-29T03:12:49;8.40;99.90
5806;DHT22;2929;50.810;8.342;2022-12-29T03:15:42;8.40;99.90
5806;DHT22;2929;50.810;8.342;2022-12-29T03:18:37;8.30;99.90
5806;DHT22;2929;50.810;8.342;2022-12-29T03:21:11;8.30;99.90
5806;DHT22;2929;50.810;8.342;2022-12-29T03:23:41;8.30;99.90
5806;DHT22;2929;50.810;8.342;2022-12-29T03:26:11;8.30;99.90
5806;DHT22;2929;50.810;8.342;2022-12-29T03:28:44;8.30;99.90
5806;DHT22;2929;50.810;8.342;2022-12-29T03:31:18;8.40;99.90
5806;DHT22;2929;50.810;8.342;2022-12-29T03:33:49;8.30;99.90
5806;DHT22;2929;50.810;8.342;2022-12-29T03:36:23;8.30;99.90
5806;DHT22;2929;50.810;8.342;2022-12-29T03:38:57;8.30;99.90
5806;DHT22;2929;50.810;8.342;2022-12-29T03:41:30;8.20;99.90
5806;DHT22;2929;50.810;8.342;2022-12-29T03:43:59;8.30;99.90
5806;DHT22;2929;50.810;8.342;2022-12-29T03:46:27;8.30;99.90
5806;DHT22;2929;50.810;8.342;2022-12-29T03:48:55;8.30;99.90
5806;DHT22;2929;50.810;8.342;2022-12-29T03:51:23;8.40;99.90
5806;DHT22;2929;50.810;8.342;2022-12-29T03:53:50;8.40;99.90
5806;DHT22;2929;50.810;8.342;2022-12-29T03:56:18;8.40;99.90
5806;DHT22;2929;50.810;8.342;2022-12-29T03:58:46;8.40;99.90
5806;DHT22;2929;50.810;8.342;2022-12-29T04:01:18;8.30;99.90
5806;DHT22;2929;50.810;8.342;2022-12-29T04:03:45;8.30;99.90
5806;DHT22;2929;50.810;8.342;2022-12-29T04:06:14;8.30;99.90
5806;DHT22;2929;50.810;8.342;2022-12-29T04:08:48;8.30;99.90
5806;DHT22;2929;50.810;8.342;2022-12-29T04:11:16;8.20;99.90
5806;DHT22;2929;50.810;8.342;2022-12-29T04:13:43;8.30;99.90
5806;DHT22;2929;50.810;8.342;2022-12-29T04:16:14;8.30;99.90
5806;DHT22;2929;50.810;8.342;2022-12-29T04:18:41;8.30;99.90
5806;DHT22;2929;50.810;8.342;2022-12-29T04:21:08;8.20;99.90
5806;DHT22;2929;50.810;8.342;2022-12-29T04:23:40;8.30;99.90
5806;DHT22;2929;50.810;8.342;2022-12-29T04:26:08;8.20;99.90
5806;DHT22;2929;50.810;8.342;2022-12-29T04:28:47;8.30;99.90
5806;DHT22;2929;50.810;8.342;2022-12-29T04:31:37;8.20;99.90
5806;DHT22;2929;50.810;8.342;2022-12-29T04:34:05;8.20;99.90
5806;DHT22;2929;50.810;8.342;2022-12-29T04:36:32;8.20;99.90
5806;DHT22;2929;50.810;8.342;2022-12-29T04:39:01;8.20;99.90
5806;DHT22;2929;50.810;8.342;2022-12-29T04:41:32;8.20;99.90
5806;DHT22;2929;50.810;8.342;2022-12-29T04:43:59;8.20;99.90
5806;DHT22;2929;50.810;8.342;2022-12-29T04:46:45;8.20;99.90
5806;DHT22;2929;50.810;8.342;2022-12-29T04:49:50;8.20;99.90
5806;DHT22;2929;50.810;8.342;2022-12-29T04:52:36;8.20;99.90
5806;DHT22;2929;50.810;8.342;2022-12-29T04:55:07;8.20;99.90
5806;DHT22;2929;50.810;8.342;2022-12-29T04:57:34;8.20;99.90
5806;DHT22;2929;50.810;8.342;2022-12-29T05:00:01;8.20;99.90
5806;DHT22;2929;50.810;8.342;2022-12-29T05:02:29;8.20;99.90
5806;DHT22;2929;50.810;8.342;2022-12-29T05:04:56;8.20;99.90
5806;DHT22;2929;50.810;8.342;2022-12-29T05:07:24;8.20;99.90
5806;DHT22;2929;50.810;8.342;2022-12-29T05:09:53;8.30;99.90
5806;DHT22;2929;50.810;8.342;2022-12-29T05:12:21;8.20;99.90
5806;DHT22;2929;50.810;8.342;2022-12-29T05:14:56;8.30;99.90
5806;DHT22;2929;50.810;8.342;2022-12-29T05:17:23;8.30;99.90
5806;DHT22;2929;50.810;8.342;2022-12-29T05:19:53;8.20;99.90
5806;DHT22;2929;50.810;8.342;2022-12-29T05:22:20;8.20;99.90
5806;DHT22;2929;50.810;8.342;2022-12-29T05:24:48;8.30;99.90
5806;DHT22;2929;50.810;8.342;2022-12-29T05:27:15;8.40;99.90
5806;DHT22;2929;50.810;8.342;2022-12-29T05:30:11;8.40;99.90
5806;DHT22;2929;50.810;8.342;2022-12-29T05:32:38;8.40;99.90
5806;DHT22;2929;50.810;8.342;2022-12-29T05:35:07;8.40;99.90
5806;DHT22;2929;50.810;8.342;2022-12-29T05:37:34;8.40;99.90
5806;DHT22;2929;50.810;8.342;2022-12-29T05:40:02;8.40;99.90
5806;DHT22;2929;50.810;8.342;2022-12-29T05:42:30;8.40;99.90
5806;DHT22;2929;50.810;8.342;2022-12-29T05:45:17;8.40;99.90
5806;DHT22;2929;50.810;8.342;2022-12-29T05:48:10;8.40;99.90
5806;DHT22;2929;50.810;8.342;2022-12-29T05:51:09;8.30;99.90
5806;DHT22;2929;50.810;8.342;2022-12-29T05:53:45;8.30;99.90
5806;DHT22;2929;50.810;8.342;2022-12-29T05:56:12;8.30;99.90
5806;DHT22;2929;50.810;8.342;2022-12-29T05:58:40;8.40;99.90
5806;DHT22;2929;50.810;8.342;2022-12-29T06:01:09;8.30;99.90
5806;DHT22;2929;50.810;8.342;2022-12-29T06:03:36;8.40;99.90
5806;DHT22;2929;50.810;8.342;2022-12-29T06:06:04;8.40;99.90
5806;DHT22;2929;50.810;8.342;2022-12-29T06:08:31;8.40;99.90
5806;DHT22;2929;50.810;8.342;2022-12-29T06:10:58;8.40;99.90
5806;DHT22;2929;50.810;8.342;2022-12-29T06:13:25;8.40;99.90
5806;DHT22;2929;50.810;8.342;2022-12-29T06:15:53;8.30;99.90
5806;DHT22;2929;50.810;8.342;2022-12-29T06:18:22;8.30;99.90
5806;DHT22;2929;50.810;8.342;2022-12-29T06:20:50;8.40;99.90
5806;DHT22;2929;50.810;8.342;2022-12-29T06:23:18;8.40;99.90
5806;DHT22;2929;50.810;8.342;2022-12-29T06:25:47;8.40;99.90
5806;DHT22;2929;50.810;8.342;2022-12-29T06:28:14;8.40;99.90
5806;DHT22;2929;50.810;8.342;2022-12-29T06:30:43;8.30;99.90
5806;DHT22;2929;50.810;8.342;2022-12-29T06:33:10;8.30;99.90
5806;DHT22;2929;50.810;8.342;2022-12-29T06:35:39;8.30;99.90
5806;DHT22;2929;50.810;8.342;2022-12-29T06:38:06;8.20;99.90
5806;DHT22;2929;50.810;8.342;2022-12-29T06:40:33;8.20;99.90
5806;DHT22;2929;50.810;8.342;2022-12-29T06:43:23;8.20;99.90
5806;DHT22;2929;50.810;8.342;2022-12-29T06:46:03;8.20;99.90
5806;DHT22;2929;50.810;8.342;2022-12-29T06:48:30;8.20;99.90
5806;DHT22;2929;50.810;8.342;2022-12-29T06:50:59;8.20;99.90
5806;DHT22;2929;50.810;8.342;2022-12-29T06:53:26;8.20;99.90
5806;DHT22;2929;50.810;8.342;2022-12-29T06:55:53;8.20;99.90
5806;DHT22;2929;50.810;8.342;2022-12-29T06:58:22;8.10;99.90
5806;DHT22;2929;50.810;8.342;2022-12-29T07:00:49;8.20;99.90
5806;DHT22;2929;50.810;8.342;2022-12-29T07:03:16;8.20;99.90
5806;DHT22;2929;50.810;8.342;2022-12-29T07:05:43;8.20;99.90
5806;DHT22;2929;50.810;8.342;2022-12-29T07:08:11;8.20;99.90
5806;DHT22;2929;50.810;8.342;2022-12-29T07:10:38;8.20;99.90
5806;DHT22;2929;50.810;8.342;2022-12-29T07:13:05;8.10;99.90
5806;DHT22;2929;50.810;8.342;2022-12-29T07:15:33;8.10;99.90
5806;DHT22;2929;50.810;8.342;2022-12-29T07:18:00;8.20;99.90
5806;DHT22;2929;50.810;8.342;2022-12-29T07:20:27;8.20;99.90
5806;DHT22;2929;50.810;8.342;2022-12-29T07:22:54;8.20;99.90
5806;DHT22;2929;50.810;8.342;2022-12-29T07:25:23;8.10;99.90
5806;DHT22;2929;50.810;8.342;2022-12-29T07:27:50;8.10;99.90
5806;DHT22;2929;50.810;8.342;2022-12-29T07:30:17;8.10;99.90
5806;DHT22;2929;50.810;8.342;2022-12-29T07:32:44;8.10;99.90
5806;DHT22;2929;50.810;8.342;2022-12-29T07:35:11;8.10;99.90
5806;DHT22;2929;50.810;8.342;2022-12-29T07:37:38;8.20;99.90
5806;DHT22;2929;50.810;8.342;2022-12-29T07:40:06;8.20;99.90
5806;DHT22;2929;50.810;8.342;2022-12-29T07:42:34;8.20;99.90
5806;DHT22;2929;50.810;8.342;2022-12-29T07:45:03;8.20;99.90
5806;DHT22;2929;50.810;8.342;2022-12-29T07:47:34;8.20;99.90
5806;DHT22;2929;50.810;8.342;2022-12-29T07:50:01;8.20;99.90
5806;DHT22;2929;50.810;8.342;2022-12-29T07:52:31;8.20;99.90
5806;DHT22;2929;50.810;8.342;2022-12-29T07:54:58;8.10;99.90
5806;DHT22;2929;50.810;8.342;2022-12-29T07:57:25;8.10;99.90
5806;DHT22;2929;50.810;8.342;2022-12-29T07:59:54;8.10;99.90
5806;DHT22;2929;50.810;8.342;2022-12-29T08:02:20;8.10;99.90
5806;DHT22;2929;50.810;8.342;2022-12-29T08:04:47;8.20;99.90
5806;DHT22;2929;50.810;8.342;2022-12-29T08:07:14;8.20;99.90
5806;DHT22;2929;50.810;8.342;2022-12-29T08:09:41;8.30;99.90
5806;DHT22;2929;50.810;8.342;2022-12-29T08:12:10;8.30;99.90
5806;DHT22;2929;50.810;8.342;2022-12-29T08:14:37;8.30;99.90
5806;DHT22;2929;50.810;8.342;2022-12-29T08:17:05;8.40;99.90
5806;DHT22;2929;50.810;8.342;2022-12-29T08:19:32;8.30;99.90
5806;DHT22;2929;50.810;8.342;2022-12-29T08:21:59;8.20;99.90
5806;DHT22;2929;50.810;8.342;2022-12-29T08:24:27;8.20;99.90
5806;DHT22;2929;50.810;8.342;2022-12-29T08:26:54;8.10;99.90
5806;DHT22;2929;50.810;8.342;2022-12-29T08:29:21;8.20;99.90
5806;DHT22;2929;50.810;8.342;2022-12-29T08:31:48;8.20;99.90
5806;DHT22;2929;50.810;8.342;2022-12-29T08:34:16;8.10;99.90
5806;DHT22;2929;50.810;8.342;2022-12-29T08:36:43;8.10;99.90
5806;DHT22;2929;50.810;8.342;2022-12-29T08:39:10;8.00;99.90
5806;DHT22;2929;50.810;8.342;2022-12-29T08:41:38;8.10;99.90
5806;DHT22;2929;50.810;8.342;2022-12-29T08:44:05;8.20;99.90
5806;DHT22;2929;50.810;8.342;2022-12-29T08:46:32;8.20;99.90
5806;DHT22;2929;50.810;8.342;2022-12-29T08:48:59;8.30;99.90
5806;DHT22;2929;50.810;8.342;2022-12-29T08:51:27;8.30;99.90
5806;DHT22;2929;50.810;8.342;2022-12-29T08:53:54;8.40;99.90
5806;DHT22;2929;50.810;8.342;2022-12-29T08:56:22;8.50;99.90
5806;DHT22;2929;50.810;8.342;2022-12-29T08:58:52;8.50;99.90
5806;DHT22;2929;50.810;8.342;2022-12-29T09:01:21;8.50;99.90
5806;DHT22;2929;50.810;8.342;2022-12-29T09:03:48;8.50;99.90
5806;DHT22;2929;50.810;8.342;2022-12-29T09:06:17;8.50;99.90
5806;DHT22;2929;50.810;8.342;2022-12-29T09:08:45;8.50;99.90
5806;DHT22;2929;50.810;8.342;2022-12-29T09:11:15;8.50;99.90
5806;DHT22;2929;50.810;8.342;2022-12-29T09:13:42;8.50;99.90
5806;DHT22;2929;50.810;8.342;2022-12-29T09:16:09;8.60;99.90
5806;DHT22;2929;50.810;8.342;2022-12-29T09:18:37;8.60;99.90
5806;DHT22;2929;50.810;8.342;2022-12-29T09:21:05;8.70;99.90
5806;DHT22;2929;50.810;8.342;2022-12-29T09:23:33;8.60;99.90
5806;DHT22;2929;50.810;8.342;2022-12-29T09:26:02;8.50;99.90
5806;DHT22;2929;50.810;8.342;2022-12-29T09:28:30;8.50;99.90
5806;DHT22;2929;50.810;8.342;2022-12-29T09:30:57;8.50;99.90
5806;DHT22;2929;50.810;8.342;2022-12-29T09:33:25;8.50;99.90
5806;DHT22;2929;50.810;8.342;2022-12-29T09:35:53;8.50;99.90
5806;DHT22;2929;50.810;8.342;2022-12-29T09:38:21;8.70;99.90
5806;DHT22;2929;50.810;8.342;2022-12-29T09:40:50;8.70;99.90
5806;DHT22;2929;50.810;8.342;2022-12-29T09:43:32;8.80;99.90
5806;DHT22;2929;50.810;8.342;2022-12-29T09:46:11;8.80;99.90
5806;DHT22;2929;50.810;8.342;2022-12-29T09:48:46;8.80;99.90
5806;DHT22;2929;50.810;8.342;2022-12-29T09:51:17;8.80;99.90
5806;DHT22;2929;50.810;8.342;2022-12-29T09:53:52;8.90;99.90
5806;DHT22;2929;50.810;8.342;2022-12-29T09:56:21;8.90;99.90
5806;DHT22;2929;50.810;8.342;2022-12-29T09:58:54;8.90;99.90
5806;DHT22;2929;50.810;8.342;2022-12-29T10:01:28;8.90;99.90
5806;DHT22;2929;50.810;8.342;2022-12-29T10:03:57;8.90;99.90
5806;DHT22;2929;50.810;8.342;2022-12-29T10:06:29;8.90;99.90
5806;DHT22;2929;50.810;8.342;2022-12-29T10:09:02;8.90;99.90
5806;DHT22;2929;50.810;8.342;2022-12-29T10:11:51;8.80;99.90
5806;DHT22;2929;50.810;8.342;2022-12-29T10:14:32;8.90;99.90
5806;DHT22;2929;50.810;8.342;2022-12-29T10:17:14;8.90;99.90
5806;DHT22;2929;50.810;8.342;2022-12-29T10:20:10;8.90;99.90
5806;DHT22;2929;50.810;8.342;2022-12-29T10:22:49;8.90;99.90
5806;DHT22;2929;50.810;8.342;2022-12-29T10:25:22;8.90;99.90
5806;DHT22;2929;50.810;8.342;2022-12-29T10:27:51;8.80;99.90
5806;DHT22;2929;50.810;8.342;2022-12-29T10:30:21;8.80;99.90
5806;DHT22;2929;50.810;8.342;2022-12-29T10:32:52;8.80;99.90
5806;DHT22;2929;50.810;8.342;2022-12-29T10:35:40;8.80;99.90
5806;DHT22;2929;50.810;8.342;2022-12-29T10:38:15;8.70;99.90
5806;DHT22;2929;50.810;8.342;2022-12-29T10:40:48;8.80;99.90
5806;DHT22;2929;50.810;8.342;2022-12-29T10:43:24;8.80;99.90
5806;DHT22;2929;50.810;8.342;2022-12-29T10:45:54;8.80;99.90
5806;DHT22;2929;50.810;8.342;2022-12-29T10:48:25;8.80;99.90
5806;DHT22;2929;50.810;8.342;2022-12-29T10:50:57;8.80;99.90
5806;DHT22;2929;50.810;8.342;2022-12-29T10:53:29;8.80;99.90
5806;DHT22;2929;50.810;8.342;2022-12-29T10:55:59;8.80;99.90
5806;DHT22;2929;50.810;8.342;2022-12-29T10:58:28;8.80;99.90
5806;DHT22;2929;50.810;8.342;2022-12-29T11:00:59;8.80;99.90
5806;DHT22;2929;50.810;8.342;2022-12-29T11:03:51;8.80;99.90
5806;DHT22;2929;50.810;8.342;2022-12-29T11:06:24;8.80;99.90
5806;DHT22;2929;50.810;8.342;2022-12-29T11:08:55;8.90;99.90
5806;DHT22;2929;50.810;8.342;2022-12-29T11:11:25;8.90;99.90
5806;DHT22;2929;50.810;8.342;2022-12-29T11:13:58;8.90;99.90
5806;DHT22;2929;50.810;8.342;2022-12-29T11:16:31;8.90;99.90
5806;DHT22;2929;50.810;8.342;2022-12-29T11:19:00;9.00;99.90
5806;DHT22;2929;50.810;8.342;2022-12-29T11:21:32;8.90;99.90
5806;DHT22;2929;50.810;8.342;2022-12-29T11:24:02;8.90;99.90
5806;DHT22;2929;50.810;8.342;2022-12-29T11:26:30;8.90;99.90
5806;DHT22;2929;50.810;8.342;2022-12-29T11:29:22;9.00;99.90
5806;DHT22;2929;50.810;8.342;2022-12-29T11:31:52;9.10;99.90
5806;DHT22;2929;50.810;8.342;2022-12-29T11:34:22;9.10;99.90
5806;DHT22;2929;50.810;8.342;2022-12-29T11:36:53;9.10;99.90
5806;DHT22;2929;50.810;8.342;2022-12-29T11:39:36;9.10;99.90
5806;DHT22;2929;50.810;8.342;2022-12-29T11:42:06;9.10;99.90
5806;DHT22;2929;50.810;8.342;2022-12-29T11:44:38;9.10;99.90
5806;DHT22;2929;50.810;8.342;2022-12-29T11:47:25;9.10;99.90
5806;DHT22;2929;50.810;8.342;2022-12-29T11:49:55;9.10;99.90
5806;DHT22;2929;50.810;8.342;2022-12-29T11:52:27;9.10;99.90
5806;DHT22;2929;50.810;8.342;2022-12-29T11:54:56;9.10;99.90
5806;DHT22;2929;50.810;8.342;2022-12-29T11:57:24;9.10;99.90
5806;DHT22;2929;50.810;8.342;2022-12-29T11:59:52;9.10;99.90
5806;DHT22;2929;50.810;8.342;2022-12-29T12:02:36;9.10;99.90
5806;DHT22;2929;50.810;8.342;2022-12-29T12:05:17;9.10;99.90
5806;DHT22;2929;50.810;8.342;2022-12-29T12:07:49;9.10;99.90
5806;DHT22;2929;50.810;8.342;2022-12-29T12:10:24;9.10;99.90
5806;DHT22;2929;50.810;8.342;2022-12-29T12:12:59;9.10;99.90
5806;DHT22;2929;50.810;8.342;2022-12-29T12:15:34;9.10;99.90
5806;DHT22;2929;50.810;8.342;2022-12-29T12:18:09;9.10;99.90
5806;DHT22;2929;50.810;8.342;2022-12-29T12:20:46;9.10;99.90
5806;DHT22;2929;50.810;8.342;2022-12-29T12:23:27;9.10;99.90
5806;DHT22;2929;50.810;8.342;2022-12-29T12:26:04;9.10;99.90
5806;DHT22;2929;50.810;8.342;2022-12-29T12:28:42;9.10;99.90
5806;DHT22;2929;50.810;8.342;2022-12-29T12:31:20;9.20;99.90
5806;DHT22;2929;50.810;8.342;2022-12-29T12:33:53;9.30;99.90
5806;DHT22;2929;50.810;8.342;2022-12-29T12:39:18;9.30;99.90
5806;DHT22;2929;50.810;8.342;2022-12-29T12:42:00;9.30;99.90
5806;DHT22;2929;50.810;8.342;2022-12-29T12:44:37;9.30;99.90
5806;DHT22;2929;50.810;8.342;2022-12-29T12:47:27;9.40;99.90
5806;DHT22;2929;50.810;8.342;2022-12-29T12:50:15;9.40;99.90
5806;DHT22;2929;50.810;8.342;2022-12-29T12:53:01;9.40;99.90
5806;DHT22;2929;50.810;8.342;2022-12-29T12:55:41;9.40;99.90
5806;DHT22;2929;50.810;8.342;2022-12-29T12:58:17;9.40;99.90
5806;DHT22;2929;50.810;8.342;2022-12-29T13:01:01;9.30;99.90
5806;DHT22;2929;50.810;8.342;2022-12-29T13:03:43;9.30;99.90
5806;DHT22;2929;50.810;8.342;2022-12-29T13:06:21;9.30;99.90
5806;DHT22;2929;50.810;8.342;2022-12-29T13:09:12;9.30;99.90
5806;DHT22;2929;50.810;8.342;2022-12-29T13:11:55;9.20;99.90
5806;DHT22;2929;50.810;8.342;2022-12-29T13:14:37;9.20;99.90
5806;DHT22;2929;50.810;8.342;2022-12-29T13:17:15;9.10;99.90
5806;DHT22;2929;50.810;8.342;2022-12-29T13:19:51;9.00;99.90
5806;DHT22;2929;50.810;8.342;2022-12-29T13:22:27;9.10;99.90
5806;DHT22;2929;50.810;8.342;2022-12-29T13:25:08;9.10;99.90
5806;DHT22;2929;50.810;8.342;2022-12-29T13:27:46;9.10;99.90
5806;DHT22;2929;50.810;8.342;2022-12-29T13:30:17;9.10;99.90
5806;DHT22;2929;50.810;8.342;2022-12-29T13:32:53;9.00;99.90
5806;DHT22;2929;50.810;8.342;2022-12-29T13:35:34;9.00;99.90
5806;DHT22;2929;50.810;8.342;2022-12-29T13:38:10;9.00;99.90
5806;DHT22;2929;50.810;8.342;2022-12-29T13:40:41;8.90;99.90
5806;DHT22;2929;50.810;8.342;2022-12-29T13:43:11;8.90;99.90
5806;DHT22;2929;50.810;8.342;2022-12-29T13:45:40;8.90;99.90
5806;DHT22;2929;50.810;8.342;2022-12-29T13:48:13;8.90;99.90
5806;DHT22;2929;50.810;8.342;2022-12-29T13:50:41;8.90;99.90
5806;DHT22;2929;50.810;8.342;2022-12-29T13:53:22;9.00;99.90
5806;DHT22;2929;50.810;8.342;2022-12-29T13:55:55;8.90;99.90
5806;DHT22;2929;50.810;8.342;2022-12-29T13:58:29;8.90;99.90
5806;DHT22;2929;50.810;8.342;2022-12-29T14:01:00;8.90;99.90
5806;DHT22;2929;50.810;8.342;2022-12-29T14:03:48;9.00;99.90
5806;DHT22;2929;50.810;8.342;2022-12-29T14:06:22;8.90;99.90
5806;DHT22;2929;50.810;8.342;2022-12-29T14:08:53;8.80;99.90
5806;DHT22;2929;50.810;8.342;2022-12-29T14:11:23;8.70;99.90
5806;DHT22;2929;50.810;8.342;2022-12-29T14:13:51;8.70;99.90
5806;DHT22;2929;50.810;8.342;2022-12-29T14:16:31;8.60;99.90
5806;DHT22;2929;50.810;8.342;2022-12-29T14:19:05;8.60;99.90
5806;DHT22;2929;50.810;8.342;2022-12-29T14:21:36;8.60;99.90
5806;DHT22;2929;50.810;8.342;2022-12-29T14:24:28;8.60;99.90
5806;DHT22;2929;50.810;8.342;2022-12-29T14:26:55;8.60;99.90
5806;DHT22;2929;50.810;8.342;2022-12-29T14:29:52;8.70;99.90
5806;DHT22;2929;50.810;8.342;2022-12-29T14:32:37;8.70;99.90
5806;DHT22;2929;50.810;8.342;2022-12-29T14:35:37;8.70;99.90
5806;DHT22;2929;50.810;8.342;2022-12-29T14:38:23;8.60;99.90
5806;DHT22;2929;50.810;8.342;2022-12-29T14:40:52;8.60;99.90
5806;DHT22;2929;50.810;8.342;2022-12-29T14:43:39;8.50;99.90
5806;DHT22;2929;50.810;8.342;2022-12-29T14:46:08;8.50;99.90
5806;DHT22;2929;50.810;8.342;2022-12-29T14:48:38;8.60;99.90
5806;DHT22;2929;50.810;8.342;2022-12-29T14:51:21;8.60;99.90
5806;DHT22;2929;50.810;8.342;2022-12-29T14:53:52;8.50;99.90
5806;DHT22;2929;50.810;8.342;2022-12-29T14:56:25;8.50;99.90
5806;DHT22;2929;50.810;8.342;2022-12-29T14:58:54;8.50;99.90
5806;DHT22;2929;50.810;8.342;2022-12-29T15:01:29;8.50;99.90
5806;DHT22;2929;50.810;8.342;2022-12-29T15:04:06;8.50;99.90
5806;DHT22;2929;50.810;8.342;2022-12-29T15:06:40;8.40;99.90
5806;DHT22;2929;50.810;8.342;2022-12-29T15:09:15;8.50;99.90
5806;DHT22;2929;50.810;8.342;2022-12-29T15:11:51;8.50;99.90
5806;DHT22;2929;50.810;8.342;2022-12-29T15:14:31;8.40;99.90
5806;DHT22;2929;50.810;8.342;2022-12-29T15:16:59;8.40;99.90
5806;DHT22;2929;50.810;8.342;2022-12-29T15:19:27;8.40;99.90
5806;DHT22;2929;50.810;8.342;2022-12-29T15:21:55;8.40;99.90
5806;DHT22;2929;50.810;8.342;2022-12-29T15:24:23;8.30;99.90
5806;DHT22;2929;50.810;8.342;2022-12-29T15:26:53;8.30;99.90
5806;DHT22;2929;50.810;8.342;2022-12-29T15:29:30;8.20;99.90
5806;DHT22;2929;50.810;8.342;2022-12-29T15:31:59;8.10;99.90
5806;DHT22;2929;50.810;8.342;2022-12-29T15:34:30;8.10;99.90
5806;DHT22;2929;50.810;8.342;2022-12-29T15:36:57;8.00;99.90
5806;DHT22;2929;50.810;8.342;2022-12-29T15:39:29;8.10;99.90
5806;DHT22;2929;50.810;8.342;2022-12-29T15:42:02;8.00;99.90
5806;DHT22;2929;50.810;8.342;2022-12-29T15:44:35;8.00;99.90
5806;DHT22;2929;50.810;8.342;2022-12-29T15:47:05;8.00;99.90
5806;DHT22;2929;50.810;8.342;2022-12-29T15:49:32;8.00;99.90
5806;DHT22;2929;50.810;8.342;2022-12-29T15:52:00;8.10;99.90
5806;DHT22;2929;50.810;8.342;2022-12-29T15:54:30;8.10;99.90
5806;DHT22;2929;50.810;8.342;2022-12-29T15:56:59;8.10;99.90
5806;DHT22;2929;50.810;8.342;2022-12-29T15:59:28;8.00;99.90
5806;DHT22;2929;50.810;8.342;2022-12-29T16:01:58;8.00;99.90
5806;DHT22;2929;50.810;8.342;2022-12-29T16:04:27;8.00;99.90
5806;DHT22;2929;50.810;8.342;2022-12-29T16:06:56;8.00;99.90
5806;DHT22;2929;50.810;8.342;2022-12-29T16:09:33;8.00;99.90
5806;DHT22;2929;50.810;8.342;2022-12-29T16:12:04;8.00;99.90
5806;DHT22;2929;50.810;8.342;2022-12-29T16:14:34;8.00;99.90
5806;DHT22;2929;50.810;8.342;2022-12-29T16:17:04;7.90;99.90
5806;DHT22;2929;50.810;8.342;2022-12-29T16:19:33;7.90;99.90
5806;DHT22;2929;50.810;8.342;2022-12-29T16:22:02;7.90;99.90
5806;DHT22;2929;50.810;8.342;2022-12-29T16:24:31;7.90;99.90
5806;DHT22;2929;50.810;8.342;2022-12-29T16:27:07;7.90;99.90
5806;DHT22;2929;50.810;8.342;2022-12-29T16:29:37;7.90;99.90
5806;DHT22;2929;50.810;8.342;2022-12-29T16:32:23;7.80;99.90
5806;DHT22;2929;50.810;8.342;2022-12-29T16:35:00;7.70;99.90
5806;DHT22;2929;50.810;8.342;2022-12-29T16:37:30;7.60;99.90
5806;DHT22;2929;50.810;8.342;2022-12-29T16:40:26;7.60;99.90
5806;DHT22;2929;50.810;8.342;2022-12-29T16:42:58;7.60;99.90
5806;DHT22;2929;50.810;8.342;2022-12-29T16:46:11;7.60;99.90
5806;DHT22;2929;50.810;8.342;2022-12-29T16:48:47;7.60;99.90
5806;DHT22;2929;50.810;8.342;2022-12-29T16:51:18;7.60;99.90
5806;DHT22;2929;50.810;8.342;2022-12-29T16:53:49;7.60;99.90
5806;DHT22;2929;50.810;8.342;2022-12-29T16:56:20;7.50;99.90
5806;DHT22;2929;50.810;8.342;2022-12-29T16:58:51;7.50;99.90
5806;DHT22;2929;50.810;8.342;2022-12-29T17:01:20;7.40;99.90